Time;durP1;ratioP1;P1;durP2;ratioP2;P2;SDS_P1;SDS_P2;PMS_P1;PMS_P2;Temp;Humidity;BMP_temperature;BMP_pressure;BME280_temperature;BME280_humidity;BME280_pressure;Samples;Min_cycle;Max_cycle;Signal;HPM_P1;HPM_P2
2021/12/21 00:01:58;;;;;;;20.03;13.97;;;;;;;;;;5075911;28;20827;-68
2021/12/21 00:04:24;;;;;;;20.70;13.40;;;;;;;;;;5074742;28;20414;-68
2021/12/21 00:06:50;;;;;;;19.07;14.23;;;;;;;;;;5074654;28;20430;-67
2021/12/21 00:09:19;;;;;;;19.90;14.70;;;;;;;;;;5075635;28;20981;-66
2021/12/21 00:11:45;;;;;;;22.25;15.05;;;;;;;;;;5075871;28;20172;-67
2021/12/21 00:14:19;;;;;;;21.87;15.10;;;;;;;;;;5075807;28;20182;-64
2021/12/21 00:17:03;;;;;;;61.13;27.75;;;;;;;;;;5075715;28;20476;-67
2021/12/21 00:25:19;;;;;;;36.08;21.25;;;;;;;;;;5074686;28;20172;-67
2021/12/21 00:27:47;;;;;;;37.50;19.35;;;;;;;;;;5074297;28;20582;-67
2021/12/21 00:30:13;;;;;;;29.25;17.90;;;;;;;;;;5075501;28;20631;-64
2021/12/21 00:32:40;;;;;;;28.55;18.50;;;;;;;;;;5075471;28;20620;-66
2021/12/21 00:35:06;;;;;;;27.98;19.08;;;;;;;;;;5075509;28;20156;-64
2021/12/21 00:37:32;;;;;;;31.63;18.52;;;;;;;;;;5074068;28;20187;-67
2021/12/21 00:39:58;;;;;;;25.77;15.48;;;;;;;;;;5075316;28;20164;-63
2021/12/21 00:42:24;;;;;;;26.88;16.25;;;;;;;;;;5075293;28;20619;-64
2021/12/21 00:44:50;;;;;;;27.33;15.77;;;;;;;;;;5075148;28;20170;-63
2021/12/21 00:47:17;;;;;;;24.38;15.10;;;;;;;;;;5075077;28;20195;-63
2021/12/21 00:49:46;;;;;;;32.80;18.90;;;;;;;;;;5073742;28;20206;-63
2021/12/21 00:52:12;;;;;;;21.42;13.30;;;;;;;;;;5074934;28;20156;-64
2021/12/21 00:54:38;;;;;;;21.27;13.00;;;;;;;;;;5073663;28;20187;-64
2021/12/21 00:57:04;;;;;;;18.02;13.02;;;;;;;;;;5074719;28;20168;-63
2021/12/21 00:59:33;;;;;;;19.25;12.73;;;;;;;;;;5074840;28;20198;-63
2021/12/21 01:02:00;;;;;;;16.70;13.00;;;;;;;;;;5074621;28;20215;-65
2021/12/21 01:04:36;;;;;;;21.58;12.40;;;;;;;;;;5074485;28;20694;-63
2021/12/21 01:11:59;;;;;;;15.82;12.10;;;;;;;;;;5074938;28;20206;-63
2021/12/21 01:15:01;;;;;;;22.30;14.48;;;;;;;;;;5074457;28;20525;-63
2021/12/21 01:17:25;;;;;;;24.00;16.00;;;;;;;;;;5074133;28;20190;-63
2021/12/21 01:20:02;;;;;;;18.27;14.13;;;;;;;;;;5074605;28;20155;-65
2021/12/21 01:28:05;;;;;;;24.93;15.27;;;;;;;;;;5074622;28;20172;-64
2021/12/21 01:30:48;;;;;;;24.83;14.95;;;;;;;;;;5074197;28;20421;-64
2021/12/21 01:35:45;;;;;;;17.13;11.80;;;;;;;;;;5074502;28;20182;-64
2021/12/21 01:38:40;;;;;;;15.18;11.73;;;;;;;;;;5074133;28;20243;-65
2021/12/21 01:41:11;;;;;;;15.05;11.38;;;;;;;;;;5073679;28;20559;-64
2021/12/21 01:43:44;;;;;;;15.50;11.90;;;;;;;;;;5072721;28;20189;-67
2021/12/21 01:51:39;;;;;;;54.92;12.48;;;;;;;;;;5073915;28;20264;-65
2021/12/21 01:54:05;;;;;;;48.88;13.63;;;;;;;;;;5073837;28;20167;-65
2021/12/21 01:56:31;;;;;;;92.93;14.85;;;;;;;;;;5073861;28;20175;-64
2021/12/21 01:58:57;;;;;;;202.63;17.23;;;;;;;;;;5074033;28;20530;-64
2021/12/21 02:01:24;;;;;;;106.28;15.55;;;;;;;;;;5073631;28;20207;-65
2021/12/21 02:03:51;;;;;;;77.50;14.75;;;;;;;;;;5073771;28;20167;-65
2021/12/21 02:06:19;;;;;;;57.67;15.32;;;;;;;;;;5073636;28;20172;-64
2021/12/21 02:08:45;;;;;;;275.10;20.85;;;;;;;;;;5073575;28;20627;-64
2021/12/21 02:11:13;;;;;;;36.15;14.15;;;;;;;;;;5073641;28;20176;-65
2021/12/21 02:13:44;;;;;;;26.15;13.98;;;;;;;;;;5073585;28;20653;-67
2021/12/21 02:16:10;;;;;;;51.95;13.95;;;;;;;;;;5072924;28;20168;-65
2021/12/21 02:18:52;;;;;;;34.22;13.05;;;;;;;;;;5073799;28;20175;-66
2021/12/21 02:23:44;;;;;;;120.60;16.80;;;;;;;;;;5073497;28;20167;-66
2021/12/21 02:31:36;;;;;;;170.93;18.58;;;;;;;;;;5073693;28;20175;-65
2021/12/21 02:34:03;;;;;;;95.10;16.50;;;;;;;;;;5073430;28;20187;-68
2021/12/21 02:36:29;;;;;;;76.20;15.55;;;;;;;;;;5073322;28;20164;-64
2021/12/21 02:38:55;;;;;;;57.10;16.30;;;;;;;;;;5072056;28;20179;-64
2021/12/21 02:41:21;;;;;;;134.90;18.35;;;;;;;;;;5073296;28;20207;-64
2021/12/21 02:43:47;;;;;;;133.15;17.13;;;;;;;;;;5073229;28;20164;-66
2021/12/21 02:46:13;;;;;;;103.80;18.88;;;;;;;;;;5073327;28;20179;-66
2021/12/21 02:48:39;;;;;;;131.18;19.13;;;;;;;;;;5071942;28;20171;-66
2021/12/21 02:51:06;;;;;;;185.48;21.48;;;;;;;;;;5073225;28;20168;-68
2021/12/21 02:53:32;;;;;;;179.10;19.33;;;;;;;;;;5072034;28;20187;-68
2021/12/21 02:55:58;;;;;;;134.38;19.42;;;;;;;;;;5073241;28;20212;-67
2021/12/21 02:58:24;;;;;;;140.75;18.17;;;;;;;;;;5073240;28;20252;-69
2021/12/21 03:00:52;;;;;;;160.50;19.00;;;;;;;;;;5073067;28;20286;-67
2021/12/21 03:03:19;;;;;;;26.30;15.02;;;;;;;;;;5071811;28;20491;-68
2021/12/21 03:05:49;;;;;;;121.93;16.95;;;;;;;;;;5071888;28;20666;-69
2021/12/21 03:08:20;;;;;;;165.70;18.50;;;;;;;;;;5071797;28;20183;-68
2021/12/21 03:11:37;;;;;;;94.68;18.25;;;;;;;;;;5072932;28;20289;-69
2021/12/21 03:16:18;;;;;;;212.95;20.83;;;;;;;;;;5073214;28;20658;-68
2021/12/21 03:18:44;;;;;;;58.03;15.90;;;;;;;;;;5071743;28;20175;-69
2021/12/21 03:21:11;;;;;;;132.20;16.88;;;;;;;;;;5072834;28;20463;-69
2021/12/21 03:23:38;;;;;;;60.33;15.93;;;;;;;;;;5072944;28;20186;-68
2021/12/21 03:26:04;;;;;;;175.82;19.10;;;;;;;;;;5071630;28;20643;-69
2021/12/21 03:28:30;;;;;;;260.90;21.90;;;;;;;;;;5075437;28;20602;-66
2021/12/21 03:30:56;;;;;;;120.05;17.65;;;;;;;;;;5076547;28;20263;-67
2021/12/21 03:33:22;;;;;;;165.43;19.17;;;;;;;;;;5076566;28;20178;-68
2021/12/21 03:35:49;;;;;;;119.32;19.02;;;;;;;;;;5076499;28;20516;-67
2021/12/21 03:38:16;;;;;;;168.18;18.65;;;;;;;;;;5076746;28;20557;-66
2021/12/21 03:40:42;;;;;;;77.72;16.25;;;;;;;;;;5076357;28;20172;-66
2021/12/21 03:43:10;;;;;;;174.07;19.52;;;;;;;;;;5075029;28;20577;-68
2021/12/21 03:45:39;;;;;;;43.15;16.33;;;;;;;;;;5076581;28;20192;-65
2021/12/21 03:48:06;;;;;;;190.43;20.73;;;;;;;;;;5076215;28;20189;-65
2021/12/21 03:50:32;;;;;;;95.85;18.80;;;;;;;;;;5076130;28;20159;-66
2021/12/21 03:52:58;;;;;;;45.65;17.27;;;;;;;;;;5076199;28;20164;-67
2021/12/21 03:55:24;;;;;;;39.47;16.07;;;;;;;;;;5076108;28;20528;-65
2021/12/21 03:57:50;;;;;;;37.28;14.95;;;;;;;;;;5076046;28;20493;-68
2021/12/21 04:00:18;;;;;;;173.30;18.33;;;;;;;;;;5076002;28;20599;-66
2021/12/21 04:02:44;;;;;;;42.97;14.43;;;;;;;;;;5075887;28;20470;-65
2021/12/21 04:05:11;;;;;;;111.55;16.73;;;;;;;;;;5076115;28;20164;-67
2021/12/21 04:07:37;;;;;;;62.60;16.55;;;;;;;;;;5075900;28;20639;-68
2021/12/21 04:10:03;;;;;;;161.57;18.47;;;;;;;;;;5075647;28;20230;-68
2021/12/21 04:12:29;;;;;;;129.52;18.65;;;;;;;;;;5075871;28;20458;-64
2021/12/21 04:14:57;;;;;;;81.87;16.23;;;;;;;;;;5074445;28;20183;-65
2021/12/21 04:17:24;;;;;;;110.55;17.17;;;;;;;;;;5075574;28;20414;-66
2021/12/21 04:19:51;;;;;;;116.60;19.60;;;;;;;;;;5075681;28;20166;-65
2021/12/21 04:22:17;;;;;;;189.25;20.30;;;;;;;;;;5075581;28;20290;-64
2021/12/21 04:24:44;;;;;;;74.78;16.80;;;;;;;;;;5075621;28;20171;-66
2021/12/21 04:27:10;;;;;;;48.60;16.48;;;;;;;;;;5074288;28;20179;-66
2021/12/21 04:29:36;;;;;;;249.57;21.58;;;;;;;;;;5075467;28;20171;-65
2021/12/21 04:32:02;;;;;;;221.35;21.10;;;;;;;;;;5075375;28;20545;-64
2021/12/21 04:34:28;;;;;;;209.93;19.98;;;;;;;;;;5075349;28;20301;-65
2021/12/21 04:36:54;;;;;;;182.10;19.73;;;;;;;;;;5075334;28;20171;-65
2021/12/21 04:39:36;;;;;;;157.38;19.15;;;;;;;;;;5074764;28;20195;-65
2021/12/21 04:42:02;;;;;;;107.28;18.50;;;;;;;;;;5075390;28;20309;-65
2021/12/21 04:44:28;;;;;;;215.50;20.80;;;;;;;;;;5075223;28;20182;-65
2021/12/21 04:46:54;;;;;;;60.40;16.27;;;;;;;;;;5075076;28;20422;-67
2021/12/21 04:49:20;;;;;;;145.23;19.00;;;;;;;;;;5075073;28;20168;-65
2021/12/21 04:51:46;;;;;;;117.80;20.10;;;;;;;;;;5074960;28;20410;-65
2021/12/21 04:54:12;;;;;;;87.90;17.90;;;;;;;;;;5074947;28;20190;-65
2021/12/21 04:56:38;;;;;;;108.57;19.05;;;;;;;;;;5075013;28;20402;-67
2021/12/21 04:59:04;;;;;;;126.38;20.23;;;;;;;;;;5074848;28;20195;-64
2021/12/21 05:01:30;;;;;;;61.72;17.10;;;;;;;;;;5074775;28;20214;-65
2021/12/21 05:03:56;;;;;;;55.33;15.10;;;;;;;;;;5074843;28;20197;-64
2021/12/21 05:06:22;;;;;;;57.40;17.70;;;;;;;;;;5074762;28;20894;-64
2021/12/21 05:09:03;;;;;;;197.30;77.22;;;;;;;;;;5074554;28;20168;-64
2021/12/21 05:11:33;;;;;;;52.67;22.25;;;;;;;;;;5074630;28;20725;-65
2021/12/21 05:13:59;;;;;;;64.32;15.73;;;;;;;;;;5074586;28;20495;-63
2021/12/21 05:16:25;;;;;;;70.93;18.23;;;;;;;;;;5074427;28;20183;-64
2021/12/21 05:18:51;;;;;;;75.23;16.77;;;;;;;;;;5074525;28;20419;-64
2021/12/21 05:21:17;;;;;;;264.92;23.15;;;;;;;;;;5074440;28;20465;-63
2021/12/21 05:23:43;;;;;;;78.03;17.50;;;;;;;;;;5074384;28;20164;-64
2021/12/21 05:26:09;;;;;;;47.73;17.07;;;;;;;;;;5074308;28;20390;-64
2021/12/21 05:28:35;;;;;;;58.63;16.97;;;;;;;;;;5074284;28;20410;-64
2021/12/21 05:31:01;;;;;;;95.82;17.65;;;;;;;;;;5072987;28;20445;-64
2021/12/21 05:33:28;;;;;;;49.00;18.53;;;;;;;;;;5074202;28;20191;-64
2021/12/21 05:35:55;;;;;;;89.78;18.60;;;;;;;;;;5074129;28;20407;-63
2021/12/21 05:38:29;;;;;;;176.48;20.80;;;;;;;;;;5074173;28;20202;-63
2021/12/21 05:40:58;;;;;;;200.52;19.15;;;;;;;;;;5073994;28;20223;-64
2021/12/21 05:43:24;;;;;;;242.77;21.63;;;;;;;;;;5072595;28;20210;-64
2021/12/21 05:45:50;;;;;;;255.77;21.17;;;;;;;;;;5072660;28;20175;-63
2021/12/21 05:48:16;;;;;;;86.80;17.50;;;;;;;;;;5072959;28;20860;-63
2021/12/21 05:50:42;;;;;;;39.30;16.98;;;;;;;;;;5073244;28;20498;-65
2021/12/21 05:53:07;;;;;;;37.90;16.00;;;;;;;;;;5072432;28;20176;-64
2021/12/21 05:55:33;;;;;;;173.53;20.37;;;;;;;;;;5073872;28;20413;-64
2021/12/21 05:58:00;;;;;;;87.40;18.45;;;;;;;;;;5073740;28;20422;-65
2021/12/21 06:00:30;;;;;;;94.30;20.50;;;;;;;;;;5072499;28;20176;-64
2021/12/21 06:02:57;;;;;;;26.33;15.70;;;;;;;;;;5073631;28;20261;-64
2021/12/21 06:05:25;;;;;;;136.93;17.85;;;;;;;;;;5073760;28;20171;-64
2021/12/21 06:07:53;;;;;;;218.23;23.13;;;;;;;;;;5073797;28;20222;-64
2021/12/21 06:10:26;;;;;;;73.38;17.50;;;;;;;;;;5073504;28;20645;-64
2021/12/21 06:26:13;;;;;;;74.47;16.55;;;;;;;;;;5073734;28;20187;-64
2021/12/21 06:28:40;;;;;;;78.25;18.13;;;;;;;;;;5073600;28;20604;-63
2021/12/21 06:31:06;;;;;;;67.97;18.05;;;;;;;;;;5073285;28;20176;-64
2021/12/21 06:33:32;;;;;;;98.88;18.55;;;;;;;;;;5073427;28;20172;-64
2021/12/21 06:35:59;;;;;;;50.00;15.88;;;;;;;;;;5073351;28;20170;-66
2021/12/21 06:38:25;;;;;;;95.53;18.70;;;;;;;;;;5073320;28;20159;-66
2021/12/21 06:40:52;;;;;;;262.55;20.60;;;;;;;;;;5073176;28;20612;-66
2021/12/21 06:43:18;;;;;;;34.22;17.38;;;;;;;;;;5073343;28;20171;-66
2021/12/21 06:46:12;;;;;;;242.52;18.95;;;;;;;;;;5073168;28;20233;-65
2021/12/21 06:53:50;;;;;;;37.20;17.30;;;;;;;;;;5073465;28;20172;-64
2021/12/21 06:56:17;;;;;;;38.42;16.08;;;;;;;;;;5073086;28;20623;-64
2021/12/21 06:58:43;;;;;;;181.57;18.02;;;;;;;;;;5073108;28;20647;-64
2021/12/21 07:01:09;;;;;;;70.15;16.80;;;;;;;;;;5073023;28;20208;-62
2021/12/21 07:03:36;;;;;;;34.40;15.98;;;;;;;;;;5075895;28;20164;-65
2021/12/21 07:06:02;;;;;;;174.27;21.85;;;;;;;;;;5077268;28;20172;-64
2021/12/21 07:08:31;;;;;;;147.05;20.88;;;;;;;;;;5077010;28;20171;-66
2021/12/21 07:11:13;;;;;;;36.63;17.00;;;;;;;;;;5076761;28;20241;-61
2021/12/21 07:19:10;;;;;;;119.68;18.25;;;;;;;;;;5076983;28;20567;-61
2021/12/21 07:21:36;;;;;;;50.67;16.02;;;;;;;;;;5076659;28;20203;-61
2021/12/21 07:24:02;;;;;;;27.63;16.50;;;;;;;;;;5076645;28;20619;-61
2021/12/21 07:26:28;;;;;;;27.15;15.23;;;;;;;;;;5076590;28;20179;-61
2021/12/21 07:28:54;;;;;;;69.30;17.20;;;;;;;;;;5076571;28;20175;-62
2021/12/21 07:31:20;;;;;;;35.50;15.95;;;;;;;;;;5076457;28;20471;-61
2021/12/21 07:33:46;;;;;;;70.97;17.47;;;;;;;;;;5076467;28;20255;-62
2021/12/21 07:36:12;;;;;;;120.53;35.22;;;;;;;;;;5076383;28;20412;-61
2021/12/21 07:38:39;;;;;;;53.25;26.00;;;;;;;;;;5076301;28;20246;-62
2021/12/21 07:41:05;;;;;;;54.03;14.73;;;;;;;;;;5076269;28;20274;-62
2021/12/21 07:43:31;;;;;;;75.80;19.02;;;;;;;;;;5075000;28;20627;-62
2021/12/21 07:45:57;;;;;;;26.33;13.70;;;;;;;;;;5076228;28;20259;-62
2021/12/21 07:48:23;;;;;;;27.50;14.15;;;;;;;;;;5076178;28;20172;-63
2021/12/21 07:50:50;;;;;;;42.78;16.23;;;;;;;;;;5076137;28;20271;-62
2021/12/21 07:53:17;;;;;;;55.88;13.55;;;;;;;;;;5076013;28;20229;-62
2021/12/21 07:55:43;;;;;;;24.80;13.27;;;;;;;;;;5074869;28;20273;-65
2021/12/21 07:58:10;;;;;;;44.45;13.70;;;;;;;;;;5076088;28;20213;-62
2021/12/21 08:00:36;;;;;;;226.25;16.88;;;;;;;;;;5075985;28;20179;-62
2021/12/21 08:03:02;;;;;;;96.85;16.05;;;;;;;;;;5075755;28;20219;-64
2021/12/21 08:05:32;;;;;;;26.48;12.70;;;;;;;;;;5075946;28;20209;-63
2021/12/21 08:08:09;;;;;;;67.20;14.15;;;;;;;;;;5075805;28;20661;-63
2021/12/21 08:10:49;;;;;;;36.78;14.95;;;;;;;;;;5074352;28;20713;-63
2021/12/21 08:13:16;;;;;;;67.72;15.93;;;;;;;;;;5075822;28;20675;-64
2021/12/21 08:15:42;;;;;;;121.18;17.05;;;;;;;;;;5074893;28;20176;-64
2021/12/21 08:18:08;;;;;;;82.63;15.55;;;;;;;;;;5075572;28;20543;-62
2021/12/21 08:20:35;;;;;;;60.33;14.85;;;;;;;;;;5075632;28;20167;-64
2021/12/21 08:23:01;;;;;;;69.28;15.05;;;;;;;;;;5075525;28;20199;-63
2021/12/21 08:25:28;;;;;;;157.70;18.25;;;;;;;;;;5074240;28;20188;-63
2021/12/21 08:27:55;;;;;;;28.98;13.93;;;;;;;;;;5075588;28;20631;-63
2021/12/21 08:30:21;;;;;;;42.97;17.38;;;;;;;;;;5075389;28;20191;-64
2021/12/21 08:32:47;;;;;;;29.48;15.45;;;;;;;;;;5074125;28;20164;-63
2021/12/21 08:35:14;;;;;;;55.97;15.95;;;;;;;;;;5075319;28;20249;-62
2021/12/21 08:37:40;;;;;;;134.43;19.02;;;;;;;;;;5075289;28;20167;-63
2021/12/21 08:40:07;;;;;;;69.38;18.23;;;;;;;;;;5075238;28;20168;-63
2021/12/21 08:42:37;;;;;;;49.17;15.70;;;;;;;;;;5075108;28;20211;-64
2021/12/21 08:45:06;;;;;;;49.00;16.58;;;;;;;;;;5075129;28;20163;-64
2021/12/21 08:47:32;;;;;;;222.85;20.65;;;;;;;;;;5075143;28;20235;-63
2021/12/21 08:49:58;;;;;;;84.25;16.88;;;;;;;;;;5075071;28;20164;-63
2021/12/21 08:52:24;;;;;;;196.07;18.38;;;;;;;;;;5075081;28;20251;-64
2021/12/21 08:54:51;;;;;;;102.65;16.63;;;;;;;;;;5074938;28;20210;-63
2021/12/21 08:57:17;;;;;;;80.40;16.55;;;;;;;;;;5075193;28;20199;-63
2021/12/21 08:59:43;;;;;;;75.17;16.10;;;;;;;;;;5074918;28;20168;-65
2021/12/21 09:02:09;;;;;;;135.68;20.73;;;;;;;;;;5074732;28;20564;-64
2021/12/21 09:04:36;;;;;;;96.95;17.02;;;;;;;;;;5074789;28;20163;-66
2021/12/21 09:07:03;;;;;;;42.95;16.35;;;;;;;;;;5074911;28;20172;-64
2021/12/21 09:09:30;;;;;;;25.52;15.95;;;;;;;;;;5074512;28;20227;-66
2021/12/21 09:11:56;;;;;;;167.50;18.42;;;;;;;;;;5074526;28;20542;-65
2021/12/21 09:14:22;;;;;;;59.20;15.80;;;;;;;;;;5073253;28;20168;-64
2021/12/21 09:16:49;;;;;;;185.13;17.77;;;;;;;;;;5073188;28;20172;-65
2021/12/21 09:19:16;;;;;;;41.55;15.95;;;;;;;;;;5074398;28;20156;-65
2021/12/21 09:21:42;;;;;;;110.60;35.50;;;;;;;;;;5074568;28;20223;-65
2021/12/21 09:24:08;;;;;;;39.83;15.77;;;;;;;;;;5074403;28;20537;-63
2021/12/21 09:26:34;;;;;;;35.55;16.13;;;;;;;;;;5074215;28;20167;-66
2021/12/21 09:29:00;;;;;;;73.75;17.90;;;;;;;;;;5074302;28;20168;-64
2021/12/21 09:31:26;;;;;;;33.53;16.60;;;;;;;;;;5074273;28;20666;-63
2021/12/21 09:33:53;;;;;;;30.42;16.67;;;;;;;;;;5074146;28;20402;-65
2021/12/21 09:36:19;;;;;;;61.33;16.25;;;;;;;;;;5074014;28;20160;-63
2021/12/21 09:38:45;;;;;;;31.40;16.70;;;;;;;;;;5074022;28;20168;-65
2021/12/21 09:41:12;;;;;;;131.38;18.27;;;;;;;;;;5074075;28;20240;-64
2021/12/21 09:43:40;;;;;;;39.20;15.65;;;;;;;;;;5074090;28;20176;-65
2021/12/21 09:46:06;;;;;;;30.45;16.77;;;;;;;;;;5073877;28;20183;-65
2021/12/21 09:48:32;;;;;;;79.45;17.23;;;;;;;;;;5073907;28;20627;-65
2021/12/21 09:50:58;;;;;;;46.53;17.15;;;;;;;;;;5073846;28;20176;-63
2021/12/21 09:53:26;;;;;;;48.25;17.02;;;;;;;;;;5073844;28;20190;-66
2021/12/21 09:55:52;;;;;;;57.90;16.65;;;;;;;;;;5073776;28;20160;-66
2021/12/21 09:58:18;;;;;;;52.93;17.17;;;;;;;;;;5073792;28;20688;-66
2021/12/21 10:00:44;;;;;;;26.83;16.90;;;;;;;;;;5073411;28;20904;-64
2021/12/21 10:03:10;;;;;;;25.90;17.33;;;;;;;;;;5073752;28;20182;-63
2021/12/21 10:05:38;;;;;;;36.55;16.40;;;;;;;;;;5073869;28;20483;-63
2021/12/21 10:08:05;;;;;;;54.17;18.00;;;;;;;;;;5073594;28;20175;-66
2021/12/21 10:10:33;;;;;;;26.52;16.38;;;;;;;;;;5073293;28;20227;-65
2021/12/21 10:13:06;;;;;;;33.25;16.42;;;;;;;;;;5073642;28;20255;-64
2021/12/21 10:15:37;;;;;;;49.80;16.08;;;;;;;;;;5073450;28;20225;-65
2021/12/21 10:18:03;;;;;;;36.28;17.25;;;;;;;;;;5073568;28;20168;-63
2021/12/21 10:20:32;;;;;;;82.18;16.52;;;;;;;;;;5073768;28;20167;-64
2021/12/21 10:22:58;;;;;;;24.88;16.85;;;;;;;;;;5073399;28;20206;-65
2021/12/21 10:25:24;;;;;;;37.33;16.93;;;;;;;;;;5073476;28;20254;-65
2021/12/21 10:27:50;;;;;;;29.35;18.27;;;;;;;;;;5073501;28;20442;-65
2021/12/21 10:30:16;;;;;;;34.88;20.63;;;;;;;;;;5073378;28;20199;-64
2021/12/21 10:32:53;;;;;;;50.87;18.90;;;;;;;;;;5073548;28;20199;-65
2021/12/21 10:35:20;;;;;;;37.95;20.00;;;;;;;;;;5071939;28;20413;-63
2021/12/21 10:37:49;;;;;;;27.25;17.38;;;;;;;;;;5071411;28;20168;-63
2021/12/21 10:40:22;;;;;;;30.80;19.08;;;;;;;;;;5071877;28;20183;-64
2021/12/21 10:42:48;;;;;;;38.47;19.83;;;;;;;;;;5073389;28;20301;-66
2021/12/21 10:45:15;;;;;;;55.50;20.80;;;;;;;;;;5073102;28;20204;-64
2021/12/21 10:47:43;;;;;;;40.17;19.70;;;;;;;;;;5073138;28;20934;-65
2021/12/21 10:50:09;;;;;;;25.30;17.20;;;;;;;;;;5073225;28;20160;-63
2021/12/21 10:52:35;;;;;;;39.10;20.73;;;;;;;;;;5071903;28;20179;-64
2021/12/21 10:55:04;;;;;;;43.97;17.87;;;;;;;;;;5073208;28;20186;-66
2021/12/21 10:57:33;;;;;;;33.03;18.67;;;;;;;;;;5071886;28;20784;-64
2021/12/21 11:00:00;;;;;;;40.72;20.63;;;;;;;;;;5073084;28;20653;-65
2021/12/21 11:02:28;;;;;;;29.15;19.45;;;;;;;;;;5073187;28;20214;-63
2021/12/21 11:04:57;;;;;;;27.88;18.00;;;;;;;;;;5071715;28;20310;-64
2021/12/21 11:08:16;;;;;;;52.65;20.23;;;;;;;;;;5072917;28;20160;-63
2021/12/21 11:10:32;;;;;;;46.38;18.13;;;;;;;;;;5072348;28;20231;-63
2021/12/21 11:13:16;;;;;;;29.63;19.02;;;;;;;;;;5072876;28;20159;-63
2021/12/21 11:15:44;;;;;;;23.30;17.15;;;;;;;;;;5072772;28;20179;-63
2021/12/21 11:18:13;;;;;;;38.83;16.73;;;;;;;;;;5072823;28;20168;-63
2021/12/21 11:20:41;;;;;;;24.80;15.68;;;;;;;;;;5072876;28;20273;-64
2021/12/21 11:23:07;;;;;;;30.42;17.35;;;;;;;;;;5071362;28;20211;-63
2021/12/21 11:25:34;;;;;;;31.08;16.15;;;;;;;;;;5072699;28;20235;-64
2021/12/21 11:28:01;;;;;;;23.55;15.43;;;;;;;;;;5072743;28;20164;-62
2021/12/21 11:30:27;;;;;;;46.03;16.23;;;;;;;;;;5072924;28;20172;-64
2021/12/21 11:32:53;;;;;;;36.73;17.73;;;;;;;;;;5072706;28;20503;-62
2021/12/21 11:37:52;;;;;;;26.73;17.00;;;;;;;;;;5072971;28;20183;-62
2021/12/21 11:40:19;;;;;;;27.23;17.60;;;;;;;;;;5072616;28;20168;-62
2021/12/21 11:42:51;;;;;;;55.70;17.58;;;;;;;;;;5072495;28;20539;-62
2021/12/21 11:45:37;;;;;;;34.13;19.17;;;;;;;;;;5072563;28;20507;-62
2021/12/21 11:48:12;;;;;;;34.88;19.00;;;;;;;;;;5072732;28;20650;-62
2021/12/21 11:50:39;;;;;;;34.88;18.92;;;;;;;;;;5075118;28;20163;-62
2021/12/21 11:53:07;;;;;;;32.13;17.80;;;;;;;;;;5074874;28;20179;-61
2021/12/21 11:55:35;;;;;;;30.63;20.02;;;;;;;;;;5076179;28;20740;-63
2021/12/21 11:58:13;;;;;;;31.83;20.40;;;;;;;;;;5076124;28;20251;-61
2021/12/21 12:00:46;;;;;;;43.70;18.73;;;;;;;;;;5076002;28;20203;-62
2021/12/21 12:03:14;;;;;;;50.10;17.05;;;;;;;;;;5075970;28;20548;-63
2021/12/21 12:05:51;;;;;;;72.20;21.35;;;;;;;;;;5075874;28;20163;-63
2021/12/21 12:08:17;;;;;;;53.70;18.60;;;;;;;;;;5075799;28;20172;-63
2021/12/21 12:10:51;;;;;;;28.83;18.67;;;;;;;;;;5075700;28;20795;-62
2021/12/21 12:13:18;;;;;;;38.22;19.20;;;;;;;;;;5075859;28;20900;-62
2021/12/21 12:15:46;;;;;;;41.40;18.00;;;;;;;;;;5075705;28;20182;-61
2021/12/21 12:18:19;;;;;;;59.88;18.40;;;;;;;;;;5075671;28;20159;-62
2021/12/21 12:20:45;;;;;;;49.70;18.65;;;;;;;;;;5075649;28;20164;-61
2021/12/21 12:23:12;;;;;;;62.23;18.50;;;;;;;;;;5075620;28;20214;-61
2021/12/21 12:25:48;;;;;;;48.53;20.63;;;;;;;;;;5075456;28;20405;-62
2021/12/21 12:28:20;;;;;;;32.25;18.65;;;;;;;;;;5075467;28;20175;-62
2021/12/21 12:30:49;;;;;;;50.88;20.58;;;;;;;;;;5075408;28;20634;-61
2021/12/21 12:33:15;;;;;;;36.25;20.30;;;;;;;;;;5075349;28;20210;-62
2021/12/21 12:35:42;;;;;;;29.85;18.15;;;;;;;;;;5075334;28;20226;-61
2021/12/21 12:38:18;;;;;;;115.72;19.48;;;;;;;;;;5075360;28;20163;-61
2021/12/21 12:40:46;;;;;;;134.85;20.98;;;;;;;;;;5075287;28;20156;-61
2021/12/21 12:43:17;;;;;;;52.20;27.30;;;;;;;;;;5075154;28;20261;-61
2021/12/21 12:45:50;;;;;;;36.47;20.20;;;;;;;;;;5075170;28;20695;-62
2021/12/21 12:48:19;;;;;;;35.78;20.83;;;;;;;;;;5075112;28;20160;-62
2021/12/21 12:50:45;;;;;;;45.00;25.50;;;;;;;;;;5075000;28;20213;-62
2021/12/21 12:53:11;;;;;;;44.75;26.23;;;;;;;;;;5075276;28;20525;-62
2021/12/21 12:55:59;;;;;;;50.97;27.38;;;;;;;;;;5075002;28;20626;-62
2021/12/21 12:58:26;;;;;;;30.15;17.63;;;;;;;;;;5074893;28;20682;-63
2021/12/21 13:00:56;;;;;;;39.35;19.38;;;;;;;;;;5074541;28;20518;-61
2021/12/21 13:03:30;;;;;;;39.13;23.75;;;;;;;;;;5074751;28;20214;-61
2021/12/21 13:05:57;;;;;;;52.70;22.67;;;;;;;;;;5074740;28;20159;-62
2021/12/21 13:08:28;;;;;;;67.32;27.70;;;;;;;;;;5074747;28;20235;-61
2021/12/21 13:10:58;;;;;;;49.60;22.13;;;;;;;;;;5074491;28;20231;-63
2021/12/21 13:13:34;;;;;;;37.28;20.50;;;;;;;;;;5074542;28;20666;-61
2021/12/21 13:16:04;;;;;;;41.95;21.38;;;;;;;;;;5074477;28;20180;-61
2021/12/21 13:18:30;;;;;;;37.30;20.35;;;;;;;;;;5074785;28;20221;-62
2021/12/21 13:20:59;;;;;;;36.80;19.60;;;;;;;;;;5074376;28;20557;-61
2021/12/21 13:23:31;;;;;;;37.72;19.25;;;;;;;;;;5074260;28;20447;-62
2021/12/21 13:26:00;;;;;;;49.50;21.92;;;;;;;;;;5074642;28;20168;-61
2021/12/21 13:28:26;;;;;;;41.08;18.88;;;;;;;;;;5074218;28;20630;-62
2021/12/21 13:30:57;;;;;;;39.53;19.88;;;;;;;;;;5074288;28;20259;-63
2021/12/21 13:33:24;;;;;;;46.10;20.40;;;;;;;;;;5074415;28;20180;-61
2021/12/21 13:35:51;;;;;;;35.58;19.65;;;;;;;;;;5074079;28;20171;-62
2021/12/21 13:38:19;;;;;;;33.80;17.80;;;;;;;;;;5074029;28;20164;-61
2021/12/21 13:40:47;;;;;;;52.50;19.58;;;;;;;;;;5074029;28;20178;-61
2021/12/21 13:43:14;;;;;;;37.88;19.52;;;;;;;;;;5073960;28;20254;-61
2021/12/21 13:45:41;;;;;;;36.33;19.52;;;;;;;;;;5073911;28;20642;-61
2021/12/21 13:48:18;;;;;;;35.05;19.08;;;;;;;;;;5073880;28;20163;-62
2021/12/21 13:50:44;;;;;;;45.40;17.75;;;;;;;;;;5073839;28;20168;-62
2021/12/21 13:53:10;;;;;;;33.83;19.13;;;;;;;;;;5073803;28;20164;-60
2021/12/21 13:55:38;;;;;;;37.92;20.65;;;;;;;;;;5073751;28;20168;-61
2021/12/21 13:58:07;;;;;;;37.05;19.70;;;;;;;;;;5073657;28;20163;-60
2021/12/21 14:00:34;;;;;;;43.58;22.65;;;;;;;;;;5073687;28;20764;-62
2021/12/21 14:03:06;;;;;;;36.83;20.45;;;;;;;;;;5073553;28;20231;-62
2021/12/21 14:05:47;;;;;;;35.45;20.40;;;;;;;;;;5073734;28;20155;-61
2021/12/21 14:08:15;;;;;;;33.50;18.38;;;;;;;;;;5073685;28;20168;-62
2021/12/21 14:10:44;;;;;;;29.63;17.58;;;;;;;;;;5073554;28;20308;-63
2021/12/21 14:13:10;;;;;;;37.72;19.77;;;;;;;;;;5073023;28;20257;-62
2021/12/21 14:15:46;;;;;;;32.83;19.50;;;;;;;;;;5073803;28;20225;-62
2021/12/21 14:18:14;;;;;;;33.03;19.38;;;;;;;;;;5073456;28;20178;-62
2021/12/21 14:20:40;;;;;;;34.33;20.25;;;;;;;;;;5073502;28;20217;-61
2021/12/21 14:23:06;;;;;;;35.97;19.90;;;;;;;;;;5073457;28;20239;-61
2021/12/21 14:25:33;;;;;;;31.80;19.00;;;;;;;;;;5073638;28;20239;-61
2021/12/21 14:28:09;;;;;;;26.25;16.92;;;;;;;;;;5073434;28;20170;-61
2021/12/21 14:30:35;;;;;;;27.67;17.08;;;;;;;;;;5073364;28;20183;-60
2021/12/21 14:33:20;;;;;;;45.10;22.27;;;;;;;;;;5073308;28;20567;-60
2021/12/21 14:35:46;;;;;;;35.13;17.90;;;;;;;;;;5071978;28;20539;-60
2021/12/21 14:38:15;;;;;;;33.30;17.60;;;;;;;;;;5073280;28;20674;-61
2021/12/21 14:40:45;;;;;;;34.15;18.90;;;;;;;;;;5073302;28;20163;-61
2021/12/21 14:43:20;;;;;;;33.17;18.38;;;;;;;;;;5071928;28;20682;-61
2021/12/21 14:45:47;;;;;;;34.97;19.08;;;;;;;;;;5073153;28;20266;-61
2021/12/21 14:48:16;;;;;;;34.45;18.77;;;;;;;;;;5073213;28;20828;-61
2021/12/21 14:50:47;;;;;;;34.85;18.85;;;;;;;;;;5073149;28;20167;-61
2021/12/21 14:53:21;;;;;;;31.80;18.13;;;;;;;;;;5073200;28;20156;-61
2021/12/21 14:55:47;;;;;;;37.75;19.63;;;;;;;;;;5073111;28;20497;-61
2021/12/21 14:58:17;;;;;;;44.03;20.38;;;;;;;;;;5073278;28;20176;-63
2021/12/21 15:00:49;;;;;;;34.72;19.95;;;;;;;;;;5072985;28;20224;-62
2021/12/21 15:03:18;;;;;;;34.20;19.13;;;;;;;;;;5072934;28;20282;-61
2021/12/21 15:05:44;;;;;;;31.02;17.63;;;;;;;;;;5073065;28;20156;-61
2021/12/21 15:08:15;;;;;;;38.50;18.60;;;;;;;;;;5072954;28;20572;-61
2021/12/21 15:10:43;;;;;;;34.13;17.83;;;;;;;;;;5071625;28;20235;-61
2021/12/21 15:13:10;;;;;;;47.10;19.50;;;;;;;;;;5072923;28;20572;-63
2021/12/21 15:15:37;;;;;;;43.08;22.88;;;;;;;;;;5072914;28;20525;-62
2021/12/21 15:18:04;;;;;;;57.42;30.98;;;;;;;;;;5072934;28;20172;-62
2021/12/21 15:20:30;;;;;;;49.95;24.60;;;;;;;;;;5073167;28;20164;-62
2021/12/21 15:22:57;;;;;;;48.97;25.27;;;;;;;;;;5073114;28;20537;-62